Time;durP1;ratioP1;P1;durP2;ratioP2;P2;SDS_P1;SDS_P2;PMS_P1;PMS_P2;Temp;Humidity;BMP_temperature;BMP_pressure;BME280_temperature;BME280_humidity;BME280_pressure;Samples;Min_cycle;Max_cycle;Signal;HPM_P1;HPM_P2
2022/12/10 00:01:35;;;;;;;51.05;26.00;;;;;;;-0.43;78.16;100603.72;3576488;40;20407;-63
2022/12/10 00:04:03;;;;;;;54.50;24.63;;;;;;;-0.44;78.04;100598.44;3578342;40;20547;-63
2022/12/10 00:06:33;;;;;;;48.50;24.20;;;;;;;-0.44;77.93;100607.25;3576099;40;21681;-63
2022/12/10 00:09:01;;;;;;;50.38;25.23;;;;;;;-0.52;77.25;100591.56;3575120;40;20056;-63
2022/12/10 00:11:27;;;;;;;48.17;23.95;;;;;;;-0.49;77.71;100601.19;3573489;40;20094;-63
2022/12/10 00:13:54;;;;;;;48.33;23.75;;;;;;;-0.49;77.03;100612.63;3576864;40;20060;-63
2022/12/10 00:16:23;;;;;;;50.95;25.90;;;;;;;-0.49;76.97;100619.69;3579685;40;20067;-63
2022/12/10 00:18:50;;;;;;;49.83;24.48;;;;;;;-0.56;77.20;100603.09;3577643;40;20147;-63
2022/12/10 00:21:21;;;;;;;48.30;24.98;;;;;;;-0.51;76.91;100624.09;3579950;40;20133;-62
2022/12/10 00:23:47;;;;;;;51.30;25.73;;;;;;;-0.52;78.08;100625.03;3577440;40;20056;-62
2022/12/10 00:26:19;;;;;;;53.70;25.30;;;;;;;-0.57;77.84;100619.84;3577033;40;20068;-62
2022/12/10 00:28:46;;;;;;;49.92;25.13;;;;;;;-0.57;77.06;100626.88;3577110;40;20075;-63
2022/12/10 00:31:17;;;;;;;52.15;25.05;;;;;;;-0.58;77.72;100626.00;3577861;40;20072;-63
2022/12/10 00:33:44;;;;;;;51.55;25.88;;;;;;;-0.58;77.17;100628.63;3576583;40;20149;-63
2022/12/10 00:36:17;;;;;;;53.33;25.55;;;;;;;-0.62;77.66;100621.69;3575239;40;20060;-63
2022/12/10 00:38:45;;;;;;;53.17;25.90;;;;;;;-0.57;78.29;100629.50;3578116;40;20067;-63
2022/12/10 00:41:12;;;;;;;48.95;25.83;;;;;;;-0.57;77.84;100624.22;3575742;40;20395;-63
2022/12/10 00:43:38;;;;;;;51.03;25.85;;;;;;;-0.58;77.59;100625.13;3576001;40;20395;-63
2022/12/10 00:46:05;;;;;;;52.10;26.00;;;;;;;-0.59;76.86;100621.63;3578478;40;20087;-63
2022/12/10 00:48:31;;;;;;;51.20;26.55;;;;;;;-0.60;78.00;100625.19;3577954;40;20040;-63
2022/12/10 00:51:02;;;;;;;52.70;25.65;;;;;;;-0.61;77.63;100614.63;3576058;40;20205;-62
2022/12/10 00:53:30;;;;;;;48.75;25.65;;;;;;;-0.61;77.88;100617.28;3575189;40;20067;-63
2022/12/10 00:55:58;;;;;;;46.70;25.85;;;;;;;-0.69;77.41;100604.25;3575936;40;20055;-63
2022/12/10 00:58:28;;;;;;;49.25;25.80;;;;;;;-1.30;77.47;100499.84;3575247;40;20692;-63
2022/12/10 01:00:54;;;;;;;49.88;25.73;;;;;;;-0.68;77.72;100605.09;3577153;40;20048;-63
2022/12/10 01:03:20;;;;;;;55.78;26.83;;;;;;;-0.69;78.32;100612.16;3576504;40;20064;-62
2022/12/10 01:05:46;;;;;;;47.35;26.17;;;;;;;-0.71;78.07;100604.25;3575318;40;20063;-63
2022/12/10 01:08:12;;;;;;;55.95;27.25;;;;;;;-0.71;78.05;100604.25;3578168;40;20068;-63
2022/12/10 01:10:37;;;;;;;48.08;26.25;;;;;;;-0.72;78.47;100610.44;3573855;40;20068;-62
2022/12/10 01:13:04;;;;;;;53.75;27.35;;;;;;;-0.70;78.53;100607.75;3577547;40;20143;-63
2022/12/10 01:15:30;;;;;;;56.75;27.38;;;;;;;-0.72;77.67;100605.16;3573733;40;20500;-63
2022/12/10 01:17:55;;;;;;;52.00;27.17;;;;;;;-0.73;77.68;100608.72;3577753;40;20080;-62
2022/12/10 01:20:21;;;;;;;52.00;26.58;;;;;;;-0.73;77.23;100616.63;3575337;40;20090;-63
2022/12/10 01:22:47;;;;;;;49.72;26.10;;;;;;;-0.75;78.47;100615.78;3574550;40;20063;-63
2022/12/10 01:25:12;;;;;;;52.08;26.60;;;;;;;-0.75;78.35;100615.78;3576958;40;20096;-63
2022/12/10 01:27:38;;;;;;;51.03;25.33;;;;;;;-0.74;77.28;100619.28;3575340;40;20059;-63
2022/12/10 01:30:04;;;;;;;50.70;26.17;;;;;;;-0.73;78.21;100619.28;3576741;40;20052;-63
2022/12/10 01:32:30;;;;;;;52.30;28.10;;;;;;;-0.69;78.34;100625.34;3567369;40;20063;-63
2022/12/10 01:34:55;;;;;;;51.30;26.70;;;;;;;-0.66;78.02;100635.00;3577432;40;20057;-63
2022/12/10 01:37:21;;;;;;;55.00;27.50;;;;;;;-0.61;78.83;100635.75;3578486;40;20072;-63
2022/12/10 01:39:46;;;;;;;53.60;27.73;;;;;;;-0.57;78.43;100643.59;3572331;40;20067;-63
2022/12/10 01:42:13;;;;;;;55.78;27.10;;;;;;;-0.56;78.53;100647.09;3575490;40;20063;-63
2022/12/10 01:44:42;;;;;;;61.28;27.52;;;;;;;-0.54;79.31;100645.28;3575576;40;20057;-63
2022/12/10 01:47:09;;;;;;;65.07;25.90;;;;;;;-0.59;79.38;100648.03;3577138;40;20067;-62
2022/12/10 01:49:40;;;;;;;59.15;27.08;;;;;;;-0.63;79.27;100634.94;3577624;40;20068;-63
2022/12/10 01:52:11;;;;;;;64.10;28.90;;;;;;;-0.85;79.56;100614.22;3581401;40;20060;-63
2022/12/10 01:54:45;;;;;;;56.67;28.98;;;;;;;-0.56;79.57;100653.25;3578915;40;20330;-63
2022/12/10 01:57:17;;;;;;;56.92;27.50;;;;;;;-0.57;79.50;100646.25;3578443;40;20060;-63
2022/12/10 01:59:52;;;;;;;60.72;28.48;;;;;;;-0.53;79.90;100642.63;3578043;40;20103;-63
2022/12/10 02:02:58;;;;;;;55.97;27.17;;;;;;;-0.64;78.84;100638.44;3580021;40;20307;-63
2022/12/10 02:05:51;;;;;;;53.58;26.80;;;;;;;-0.73;79.94;100624.53;3575339;40;20052;-63
2022/12/10 02:08:40;;;;;;;55.20;28.00;;;;;;;-0.55;79.58;100649.69;3575320;40;20334;-63
2022/12/10 02:11:17;;;;;;;64.50;28.92;;;;;;;-0.54;79.64;100646.19;3577429;40;20048;-63
2022/12/10 02:14:12;;;;;;;68.20;27.83;;;;;;;-0.53;79.61;100641.78;3576632;40;20120;-64
2022/12/10 02:16:51;;;;;;;58.85;28.23;;;;;;;-0.60;79.81;100629.56;3577840;40;20386;-63
2022/12/10 02:19:45;;;;;;;66.05;30.30;;;;;;;-0.49;80.89;100639.03;3575890;40;20048;-63
2022/12/10 02:22:16;;;;;;;62.17;28.95;;;;;;;-0.48;80.03;100635.50;3577983;40;20137;-63
2022/12/10 02:24:46;;;;;;;59.90;29.27;;;;;;;-0.59;79.90;100610.22;3576788;40;20057;-63
2022/12/10 02:27:38;;;;;;;58.80;29.15;;;;;;;-0.42;79.93;100629.22;3577771;40;20133;-63
2022/12/10 02:30:05;;;;;;;58.40;27.50;;;;;;;-0.40;80.94;100631.84;3578597;40;20054;-63
2022/12/10 02:32:41;;;;;;;58.53;28.42;;;;;;;-0.34;80.22;100643.16;3576483;40;20104;-63
2022/12/10 02:35:18;;;;;;;66.10;30.20;;;;;;;-0.27;80.53;100641.25;3575187;40;20391;-63
2022/12/10 02:38:06;;;;;;;58.72;29.75;;;;;;;-0.63;81.09;100571.59;3577610;40;20370;-64
2022/12/10 02:40:39;;;;;;;54.90;27.88;;;;;;;-0.56;79.74;100583.75;3576814;40;20125;-63
2022/12/10 02:43:11;;;;;;;61.33;28.98;;;;;;;-0.18;80.62;100629.63;3578801;40;20056;-63
2022/12/10 02:45:39;;;;;;;58.20;28.40;;;;;;;-0.15;80.38;100632.22;3575975;40;20084;-63
2022/12/10 02:48:05;;;;;;;58.20;28.52;;;;;;;-0.18;80.00;100619.94;3578133;40;20051;-63
2022/12/10 02:50:31;;;;;;;59.28;28.50;;;;;;;-0.07;80.90;100630.25;3576839;40;20114;-63
2022/12/10 02:52:57;;;;;;;58.85;29.88;;;;;;;-0.04;79.90;100631.06;3577890;40;20346;-63
2022/12/10 02:55:23;;;;;;;61.63;29.85;;;;;;;-0.01;80.84;100631.00;3576804;40;20079;-62
2022/12/10 02:58:00;;;;;;;61.38;28.83;;;;;;;0.04;80.03;100628.25;3575702;40;20374;-63
2022/12/10 03:00:26;;;;;;;57.15;28.20;;;;;;;-0.03;79.53;100624.03;3578498;40;20060;-62
2022/12/10 03:03:34;;;;;;;58.53;28.40;;;;;;;0.05;79.67;100645.84;3576561;40;20429;-63
2022/12/10 03:06:33;;;;;;;59.35;29.50;;;;;;;0.08;79.89;100648.44;3575254;40;20061;-63
2022/12/10 03:09:07;;;;;;;59.55;28.33;;;;;;;0.04;79.35;100632.69;3574205;40;20579;-63
2022/12/10 03:11:34;;;;;;;61.38;27.77;;;;;;;0.17;79.12;100644.72;3575109;40;20348;-63
2022/12/10 03:14:15;;;;;;;61.10;28.80;;;;;;;0.17;79.68;100642.94;3576524;40;20072;-63
2022/12/10 03:16:54;;;;;;;55.28;27.33;;;;;;;0.20;80.12;100644.66;3578181;40;20052;-63
2022/12/10 03:19:31;;;;;;;55.30;28.83;;;;;;;0.19;79.23;100638.50;3579415;40;20060;-63
2022/12/10 03:21:59;;;;;;;57.10;27.73;;;;;;;0.22;78.84;100642.81;3578380;40;20083;-63
2022/12/10 03:24:27;;;;;;;58.63;29.08;;;;;;;0.17;78.38;100640.31;3575502;40;20056;-63
2022/12/10 03:26:56;;;;;;;58.92;28.85;;;;;;;0.16;79.82;100649.13;3574164;40;20381;-62
2022/12/10 03:29:45;;;;;;;58.33;29.08;;;;;;;0.13;79.92;100638.63;3575754;40;20060;-63
2022/12/10 03:32:14;;;;;;;58.20;27.50;;;;;;;0.16;80.04;100633.28;3578232;40;20064;-63
2022/12/10 03:34:43;;;;;;;63.63;30.88;;;;;;;0.18;78.79;100647.31;3578570;40;20060;-63
2022/12/10 03:37:12;;;;;;;57.58;29.00;;;;;;;0.18;79.96;100641.16;3575990;40;20115;-63
2022/12/10 03:39:40;;;;;;;60.53;28.63;;;;;;;0.17;79.71;100653.50;3574759;40;20060;-63
2022/12/10 03:42:06;;;;;;;58.58;28.55;;;;;;;0.13;79.16;100643.06;3578208;40;20054;-62
2022/12/10 03:44:36;;;;;;;52.88;27.65;;;;;;;0.17;79.41;100657.94;3576701;40;20059;-62
2022/12/10 03:47:06;;;;;;;58.65;29.48;;;;;;;0.16;79.82;100657.06;3580373;40;20056;-63
2022/12/10 03:49:31;;;;;;;56.78;27.67;;;;;;;0.15;79.90;100651.81;3576600;40;20060;-62
2022/12/10 03:51:57;;;;;;;58.67;27.50;;;;;;;0.11;79.23;100650.13;3576746;40;20049;-62
2022/12/10 03:54:23;;;;;;;56.85;28.38;;;;;;;0.09;79.01;100652.81;3575313;40;20125;-62
2022/12/10 03:56:49;;;;;;;62.30;28.25;;;;;;;0.10;78.88;100654.56;3578094;40;20402;-62
2022/12/10 03:59:15;;;;;;;59.35;29.25;;;;;;;0.07;79.15;100649.34;3578378;40;20062;-63
2022/12/10 04:01:41;;;;;;;60.00;27.85;;;;;;;0.11;79.31;100658.06;3576439;40;20056;-63
2022/12/10 04:04:08;;;;;;;60.00;28.33;;;;;;;0.13;79.90;100654.50;3578533;40;21546;-63
2022/12/10 04:06:34;;;;;;;61.58;28.33;;;;;;;-0.20;80.29;100589.16;3577382;40;20071;-63
2022/12/10 04:09:00;;;;;;;59.97;28.15;;;;;;;0.20;80.13;100657.88;3578446;40;20308;-63
2022/12/10 04:11:26;;;;;;;58.20;27.02;;;;;;;0.21;79.30;100657.81;3577615;40;20063;-63
2022/12/10 04:16:37;;;;;;;58.85;27.38;;;;;;;0.16;79.03;100657.06;3576824;40;20177;-63
2022/12/10 04:19:10;;;;;;;63.17;28.75;;;;;;;0.17;79.61;100658.81;3577773;40;20059;-64
2022/12/10 04:27:25;;;;;;;65.40;28.60;;;;;;;0.26;78.78;100662.16;3579210;40;20121;-65
2022/12/10 04:29:53;;;;;;;64.03;29.20;;;;;;;0.31;79.81;100661.13;3577041;40;20057;-63
2022/12/10 04:32:20;;;;;;;68.28;30.20;;;;;;;0.35;79.19;100664.56;3576788;40;20067;-63
2022/12/10 04:34:47;;;;;;;60.40;28.15;;;;;;;0.36;79.08;100661.03;3578072;40;20068;-62
2022/12/10 04:37:14;;;;;;;59.97;28.90;;;;;;;0.36;79.00;100668.97;3576210;40;20056;-63
2022/12/10 04:39:40;;;;;;;66.00;30.73;;;;;;;0.34;79.70;100670.78;3574507;40;20060;-62
2022/12/10 04:42:07;;;;;;;62.55;28.58;;;;;;;0.31;79.18;100677.00;3576410;40;20052;-62
2022/12/10 04:44:33;;;;;;;64.28;27.75;;;;;;;0.28;79.77;100668.25;3577393;40;20302;-62
2022/12/10 04:46:59;;;;;;;61.30;27.08;;;;;;;0.26;79.97;100670.09;3578005;40;20059;-62
2022/12/10 04:49:26;;;;;;;63.92;27.27;;;;;;;0.27;79.43;100671.81;3577195;40;20387;-62
2022/12/10 04:51:52;;;;;;;63.65;29.48;;;;;;;0.30;79.38;100671.75;3577374;40;20142;-62
2022/12/10 04:54:19;;;;;;;62.53;28.00;;;;;;;0.35;79.09;100675.13;3575922;40;20063;-63
2022/12/10 04:56:45;;;;;;;65.38;28.15;;;;;;;0.33;78.59;100675.19;3576571;40;20069;-63
2022/12/10 04:59:11;;;;;;;64.03;28.05;;;;;;;0.21;79.20;100665.75;3578066;40;20072;-63
2022/12/10 05:01:38;;;;;;;60.42;27.92;;;;;;;0.28;79.37;100681.47;3568212;40;20056;-62
2022/12/10 05:04:09;;;;;;;67.57;29.02;;;;;;;0.28;79.67;100679.69;3577405;40;20059;-62
2022/12/10 05:06:35;;;;;;;61.30;28.83;;;;;;;0.31;78.67;100679.63;3575042;40;20558;-62
2022/12/10 05:09:03;;;;;;;66.78;29.13;;;;;;;0.34;79.53;100678.69;3576813;40;20138;-64
2022/12/10 05:11:30;;;;;;;60.22;28.45;;;;;;;0.17;79.16;100648.22;3577601;40;20118;-63
2022/12/10 05:13:57;;;;;;;61.58;29.08;;;;;;;0.27;79.77;100650.66;3576309;40;20426;-63
2022/12/10 05:16:27;;;;;;;64.97;28.83;;;;;;;0.30;79.18;100672.63;3576892;40;20466;-63
2022/12/10 05:18:56;;;;;;;67.22;28.58;;;;;;;0.29;79.32;100659.44;3576865;40;20055;-63
2022/12/10 05:21:24;;;;;;;59.05;28.05;;;;;;;0.35;79.86;100678.69;3574847;40;20118;-63
2022/12/10 05:23:52;;;;;;;67.32;29.02;;;;;;;0.12;79.49;100642.16;3569513;40;20743;-64
2022/12/10 05:26:23;;;;;;;62.15;28.70;;;;;;;0.36;80.03;100682.19;3579816;40;20107;-63
2022/12/10 05:28:56;;;;;;;69.22;27.92;;;;;;;0.37;80.04;100683.91;3579916;40;20123;-64
2022/12/10 05:31:29;;;;;;;58.83;25.90;;;;;;;0.30;79.67;100671.75;3577356;40;20130;-63
2022/12/10 05:33:57;;;;;;;61.55;27.60;;;;;;;0.36;79.57;100683.06;3576934;40;20415;-62
2022/12/10 05:36:28;;;;;;;58.03;26.55;;;;;;;0.25;79.34;100668.31;3578403;40;20059;-62
2022/12/10 05:38:56;;;;;;;63.47;27.20;;;;;;;0.36;79.17;100682.19;3577568;40;20447;-63
2022/12/10 05:41:28;;;;;;;61.50;27.58;;;;;;;0.27;79.36;100658.59;3577402;40;20099;-63
2022/12/10 05:43:56;;;;;;;59.33;26.35;;;;;;;0.34;79.61;100673.41;3577722;40;20083;-62
2022/12/10 05:46:26;;;;;;;61.15;26.58;;;;;;;0.21;79.70;100655.19;3579220;40;20058;-63
2022/12/10 05:48:52;;;;;;;63.85;28.02;;;;;;;0.28;79.56;100669.13;3579011;40;20060;-63
2022/12/10 05:51:26;;;;;;;68.07;28.38;;;;;;;0.29;79.24;100681.47;3567858;40;20060;-63
2022/12/10 05:53:53;;;;;;;61.00;26.60;;;;;;;0.30;79.98;100679.69;3579147;40;20516;-63
2022/12/10 05:56:22;;;;;;;61.40;26.92;;;;;;;0.26;79.40;100680.66;3580808;40;20048;-62
2022/12/10 05:58:52;;;;;;;60.70;26.15;;;;;;;0.21;79.94;100672.81;3576745;40;20528;-63
2022/12/10 06:01:22;;;;;;;61.00;26.23;;;;;;;0.19;79.47;100685.19;3577970;40;20116;-63
2022/12/10 06:03:51;;;;;;;65.43;27.35;;;;;;;0.23;79.33;100682.47;3575225;40;20161;-63
2022/12/10 06:06:31;;;;;;;55.25;24.33;;;;;;;0.23;79.28;100684.25;3576751;40;20083;-63
2022/12/10 06:08:58;;;;;;;55.25;24.60;;;;;;;0.23;79.20;100684.25;3578098;40;20055;-63
2022/12/10 06:11:27;;;;;;;60.20;26.63;;;;;;;0.26;79.70;100686.81;3576420;40;20068;-62
2022/12/10 06:13:54;;;;;;;57.92;25.50;;;;;;;0.22;80.04;100686.00;3579012;40;20044;-62
2022/12/10 06:16:20;;;;;;;54.55;22.75;;;;;;;0.23;80.34;100693.03;3578053;40;20057;-63
2022/12/10 06:18:46;;;;;;;61.20;24.60;;;;;;;0.19;79.41;100683.44;3580757;40;20056;-63
2022/12/10 06:21:15;;;;;;;54.58;22.73;;;;;;;0.17;79.46;100685.22;3573843;40;20112;-63
2022/12/10 06:23:42;;;;;;;53.22;24.00;;;;;;;0.23;79.16;100686.88;3578597;40;20065;-63
2022/12/10 06:26:14;;;;;;;53.20;22.95;;;;;;;0.23;78.78;100686.88;3578156;40;20052;-63
2022/12/10 06:28:40;;;;;;;52.28;23.63;;;;;;;0.22;79.85;100688.66;3578595;40;20883;-63
2022/12/10 06:31:06;;;;;;;61.00;24.75;;;;;;;0.25;80.08;100689.47;3577920;40;20067;-63
2022/12/10 06:33:31;;;;;;;61.00;24.85;;;;;;;0.28;80.56;100697.34;3577106;40;20307;-63
2022/12/10 06:35:57;;;;;;;62.15;26.40;;;;;;;0.23;80.35;100682.47;3578857;40;20044;-63
2022/12/10 06:38:23;;;;;;;63.90;27.10;;;;;;;0.32;79.28;100691.06;3581089;40;20068;-63
2022/12/10 06:40:49;;;;;;;62.38;26.83;;;;;;;0.10;80.04;100651.06;3578592;40;20055;-63
2022/12/10 06:43:15;;;;;;;58.05;24.48;;;;;;;0.38;79.98;100697.13;3579203;40;20092;-62
2022/12/10 06:45:42;;;;;;;63.58;26.40;;;;;;;0.18;79.77;100660.53;3575468;40;20108;-63
2022/12/10 06:48:09;;;;;;;62.15;27.23;;;;;;;0.41;80.17;100697.06;3577069;40;20060;-63
2022/12/10 06:50:35;;;;;;;63.53;26.52;;;;;;;0.41;78.92;100697.06;3575128;40;20458;-63
2022/12/10 06:53:01;;;;;;;60.17;26.30;;;;;;;0.29;79.16;100684.09;3578012;40;20203;-62
2022/12/10 06:55:27;;;;;;;68.90;28.65;;;;;;;0.34;79.10;100705.13;3575842;40;20048;-63
2022/12/10 06:57:54;;;;;;;71.47;29.52;;;;;;;0.12;79.74;100676.50;3579385;40;20048;-63
2022/12/10 07:00:21;;;;;;;63.15;28.45;;;;;;;0.35;79.80;100713.06;3577119;40;20051;-62
2022/12/10 07:02:47;;;;;;;71.13;28.05;;;;;;;0.34;80.12;100721.00;3574996;40;20378;-63
2022/12/10 07:05:14;;;;;;;65.72;29.35;;;;;;;0.28;79.53;100726.41;3578504;40;20068;-63
2022/12/10 07:07:39;;;;;;;69.07;28.20;;;;;;;0.26;80.30;100721.19;3576584;40;21115;-63
2022/12/10 07:10:06;;;;;;;73.30;29.70;;;;;;;0.29;80.56;100729.03;3578108;40;20070;-63
2022/12/10 07:12:32;;;;;;;72.18;30.67;;;;;;;0.30;79.68;100729.91;3577074;40;20064;-63
2022/12/10 07:14:58;;;;;;;78.88;30.95;;;;;;;0.34;80.73;100726.28;3576277;40;20053;-63
2022/12/10 07:17:23;;;;;;;78.80;32.17;;;;;;;0.36;79.57;100730.66;3574084;40;20145;-63
2022/12/10 07:19:49;;;;;;;74.47;30.38;;;;;;;0.39;80.58;100724.44;3573636;40;20092;-63
2022/12/10 07:22:15;;;;;;;75.97;32.00;;;;;;;0.42;80.53;100727.00;3577111;40;20442;-63
2022/12/10 07:24:41;;;;;;;73.63;31.58;;;;;;;0.41;80.38;100731.44;3578991;40;20072;-63
2022/12/10 07:27:07;;;;;;;71.28;31.13;;;;;;;0.44;79.23;100735.75;3577919;40;20134;-63
2022/12/10 07:29:34;;;;;;;75.40;32.03;;;;;;;0.43;80.45;100736.66;3574423;40;20107;-63
2022/12/10 07:31:59;;;;;;;70.82;30.58;;;;;;;0.43;80.51;100741.97;3573796;40;20383;-63
2022/12/10 07:34:26;;;;;;;71.55;30.05;;;;;;;0.36;79.43;100735.94;3573630;40;20068;-63
2022/12/10 07:36:51;;;;;;;70.55;30.05;;;;;;;0.37;79.82;100737.66;3577565;40;20302;-63
2022/12/10 07:39:18;;;;;;;73.90;29.38;;;;;;;0.37;80.63;100742.09;3578103;40;20075;-63
2022/12/10 07:41:53;;;;;;;73.88;30.23;;;;;;;0.39;81.00;100735.00;3576856;40;20077;-63
2022/12/10 07:44:25;;;;;;;68.38;31.13;;;;;;;0.38;79.60;100746.47;3574719;40;20052;-63
2022/12/10 07:46:54;;;;;;;81.28;31.17;;;;;;;0.28;79.78;100726.41;3576497;40;21620;-63
2022/12/10 07:49:20;;;;;;;75.43;31.67;;;;;;;0.38;80.80;100742.06;3576929;40;20129;-63
2022/12/10 07:51:49;;;;;;;71.38;29.45;;;;;;;0.26;79.71;100723.81;3574935;40;20057;-63
2022/12/10 07:54:16;;;;;;;69.10;29.88;;;;;;;0.39;79.96;100750.88;3577032;40;20431;-62
2022/12/10 07:56:42;;;;;;;73.75;30.15;;;;;;;0.38;80.06;100744.72;3575066;40;20079;-62
2022/12/10 07:59:08;;;;;;;75.15;28.55;;;;;;;0.40;80.33;100747.31;3573943;40;20057;-62
2022/12/10 08:01:34;;;;;;;72.45;30.67;;;;;;;0.38;79.78;100749.09;3574436;40;20060;-63
2022/12/10 08:03:59;;;;;;;67.95;28.98;;;;;;;0.35;80.72;100752.72;3573772;40;20085;-62
2022/12/10 08:06:28;;;;;;;73.88;29.45;;;;;;;0.35;80.59;100760.66;3574663;40;20084;-63
2022/12/10 08:08:58;;;;;;;64.22;28.10;;;;;;;0.32;79.76;100750.13;3576569;40;20047;-63
2022/12/10 08:11:24;;;;;;;64.90;28.10;;;;;;;0.07;80.30;100693.41;3569140;40;20096;-62
2022/12/10 08:13:50;;;;;;;64.05;27.02;;;;;;;0.42;80.32;100756.09;3577359;40;20068;-62
2022/12/10 08:16:27;;;;;;;70.85;29.55;;;;;;;0.41;80.42;100770.19;3573332;40;20060;-63
2022/12/10 08:18:59;;;;;;;68.78;27.33;;;;;;;0.45;81.16;100767.47;3574686;40;20171;-62
2022/12/10 08:21:30;;;;;;;65.95;27.67;;;;;;;0.42;81.31;100766.66;3572911;40;20052;-63
2022/12/10 08:23:57;;;;;;;67.78;28.23;;;;;;;0.42;80.22;100766.66;3579639;40;20059;-62
2022/12/10 08:26:27;;;;;;;75.85;30.17;;;;;;;0.45;80.24;100771.91;3576734;40;20064;-62
2022/12/10 08:28:54;;;;;;;61.10;25.77;;;;;;;0.44;80.26;100775.41;3563663;40;20053;-63
2022/12/10 08:31:22;;;;;;;63.47;26.20;;;;;;;0.43;80.26;100789.56;3575855;40;20075;-62
2022/12/10 08:33:48;;;;;;;65.43;27.33;;;;;;;0.40;80.37;100773.75;3574335;40;20135;-63
2022/12/10 08:36:17;;;;;;;67.28;26.95;;;;;;;0.44;81.05;100786.00;3578968;40;20072;-62
2022/12/10 08:38:44;;;;;;;63.08;27.15;;;;;;;0.45;81.74;100790.41;3576009;40;20064;-63
2022/12/10 08:41:22;;;;;;;69.03;27.65;;;;;;;0.49;81.42;100786.78;3575213;40;20076;-63
2022/12/10 08:43:52;;;;;;;63.53;27.48;;;;;;;0.53;80.64;100791.09;3575150;40;20052;-63
2022/12/10 08:46:17;;;;;;;64.40;26.02;;;;;;;0.49;80.91;100804.44;3576801;40;20290;-63
2022/12/10 08:48:43;;;;;;;66.47;27.40;;;;;;;0.57;81.69;100803.38;3576522;40;20071;-62
2022/12/10 08:51:15;;;;;;;61.65;27.60;;;;;;;0.56;80.70;100801.59;3573749;40;20068;-63
2022/12/10 08:53:41;;;;;;;62.33;28.20;;;;;;;0.53;81.07;100790.22;3574361;40;20052;-63
2022/12/10 08:56:07;;;;;;;66.30;27.20;;;;;;;0.57;80.90;100803.38;3574157;40;20064;-63
2022/12/10 08:58:32;;;;;;;59.97;26.70;;;;;;;0.56;80.59;100798.09;3575876;40;20058;-62
2022/12/10 09:00:59;;;;;;;62.38;28.13;;;;;;;0.52;80.27;100799.06;3575540;40;20094;-63
2022/12/10 09:03:25;;;;;;;55.03;23.58;;;;;;;0.56;80.07;100809.53;3574744;40;20056;-62
2022/12/10 09:05:50;;;;;;;55.90;24.10;;;;;;;0.54;80.87;100808.72;3577669;40;20409;-62
2022/12/10 09:08:16;;;;;;;62.13;25.73;;;;;;;0.57;80.96;100818.34;3577683;40;20068;-63
2022/12/10 09:10:42;;;;;;;56.53;24.02;;;;;;;0.43;80.09;100805.41;3565835;40;20064;-61
2022/12/10 09:13:09;;;;;;;59.78;25.17;;;;;;;0.52;79.82;100814.94;3578386;40;20060;-63
2022/12/10 09:15:34;;;;;;;54.28;23.25;;;;;;;0.33;80.58;100777.44;3577457;40;20056;-63
2022/12/10 09:18:00;;;;;;;48.75;21.88;;;;;;;0.57;80.23;100821.00;3578528;40;20049;-62
2022/12/10 09:20:26;;;;;;;64.18;24.90;;;;;;;0.58;80.76;100815.69;3576499;40;20100;-63
2022/12/10 09:22:51;;;;;;;60.15;24.40;;;;;;;0.62;81.15;100811.19;3578206;40;20071;-62
2022/12/10 09:25:17;;;;;;;56.08;23.88;;;;;;;0.65;79.94;100812.00;3579010;40;20060;-62
2022/12/10 09:27:44;;;;;;;51.33;22.08;;;;;;;0.52;79.80;100805.22;3575214;40;20097;-63
2022/12/10 09:30:12;;;;;;;55.97;24.42;;;;;;;0.47;80.39;100784.16;3578350;40;20121;-62
2022/12/10 09:32:37;;;;;;;53.28;23.38;;;;;;;0.69;80.24;100807.50;3576339;40;20127;-62
2022/12/10 09:35:04;;;;;;;62.20;23.63;;;;;;;0.65;80.74;100812.00;3574787;40;20140;-63
2022/12/10 09:37:29;;;;;;;61.35;26.42;;;;;;;0.64;79.38;100812.91;3577635;40;20090;-62
2022/12/10 09:39:55;;;;;;;61.25;23.75;;;;;;;0.69;80.70;100818.97;3577726;40;20157;-62
2022/12/10 09:42:37;;;;;;;59.95;23.48;;;;;;;0.73;80.71;100829.47;3577715;40;20063;-62
2022/12/10 09:45:29;;;;;;;53.50;24.13;;;;;;;0.72;79.33;100839.19;3573863;40;20056;-63
2022/12/10 09:48:05;;;;;;;51.40;21.13;;;;;;;0.66;79.39;100834.88;3577109;40;20060;-63
2022/12/10 09:51:01;;;;;;;52.05;22.13;;;;;;;0.64;79.58;100828.78;3579914;40;20068;-63
2022/12/10 09:53:31;;;;;;;52.30;22.60;;;;;;;0.66;79.49;100834.03;3564966;40;20082;-62
2022/12/10 09:55:58;;;;;;;55.58;22.95;;;;;;;0.66;79.25;100824.31;3576130;40;20073;-62
2022/12/10 09:58:27;;;;;;;56.17;24.08;;;;;;;0.75;79.77;100838.25;3580702;40;20275;-62
2022/12/10 10:01:02;;;;;;;54.08;22.50;;;;;;;0.77;79.28;100837.34;3576687;40;20088;-62
2022/12/10 10:03:37;;;;;;;54.47;22.95;;;;;;;0.49;79.38;100793.84;3579659;40;20052;-62
2022/12/10 10:06:04;;;;;;;52.53;23.38;;;;;;;0.83;79.53;100842.50;3580150;40;20056;-62
2022/12/10 10:08:52;;;;;;;50.20;21.73;;;;;;;0.81;79.40;100843.44;3580583;40;20064;-62
2022/12/10 10:11:27;;;;;;;64.07;26.08;;;;;;;0.74;79.94;100839.19;3578618;40;20061;-63
2022/12/10 10:14:14;;;;;;;52.50;22.02;;;;;;;0.67;78.89;100839.31;3579248;40;20126;-63
2022/12/10 10:17:18;;;;;;;52.75;23.05;;;;;;;0.79;79.96;100864.59;3580534;40;20110;-62
2022/12/10 10:19:44;;;;;;;49.78;21.20;;;;;;;0.78;78.74;100870.81;3573851;40;20063;-63
2022/12/10 10:22:11;;;;;;;58.67;23.23;;;;;;;0.74;79.06;100857.69;3580189;40;20407;-62
2022/12/10 10:24:48;;;;;;;62.38;25.33;;;;;;;0.75;78.88;100864.72;3579888;40;20056;-63
2022/12/10 10:27:27;;;;;;;51.80;23.15;;;;;;;0.73;79.38;100850.63;3577393;40;20148;-62
2022/12/10 10:29:56;;;;;;;54.35;22.13;;;;;;;0.66;79.66;100845.47;3579109;40;20097;-63
2022/12/10 10:32:47;;;;;;;46.63;20.73;;;;;;;0.74;79.29;100860.34;3579057;40;20497;-63
2022/12/10 10:35:34;;;;;;;52.85;21.98;;;;;;;0.53;79.50;100828.13;3579221;40;20433;-62
2022/12/10 10:38:06;;;;;;;50.83;22.55;;;;;;;0.77;80.66;100857.63;3578842;40;20134;-63
2022/12/10 10:40:42;;;;;;;55.95;23.15;;;;;;;0.78;79.48;100859.38;3578531;40;20129;-63
2022/12/10 10:43:24;;;;;;;51.92;22.08;;;;;;;0.76;80.21;100856.75;3578971;40;20060;-63
2022/12/10 10:46:16;;;;;;;51.72;21.25;;;;;;;0.81;80.03;100860.16;3578823;40;20060;-63
2022/12/10 10:48:43;;;;;;;52.22;21.25;;;;;;;0.84;79.24;100860.09;3580997;40;20048;-63
2022/12/10 10:51:23;;;;;;;52.15;22.63;;;;;;;0.75;79.37;100830.31;3582045;40;20064;-62
2022/12/10 10:53:52;;;;;;;56.50;22.85;;;;;;;0.84;80.08;100848.66;3580558;40;20387;-62
2022/12/10 10:56:21;;;;;;;53.92;21.83;;;;;;;0.89;79.71;100847.66;3581641;40;20059;-62
2022/12/10 10:59:03;;;;;;;51.17;20.05;;;;;;;0.89;79.00;100846.78;3580435;40;20048;-63
2022/12/10 11:01:58;;;;;;;60.20;23.83;;;;;;;0.90;79.50;100843.22;3580264;40;20375;-63
2022/12/10 11:04:36;;;;;;;46.30;21.13;;;;;;;0.98;79.77;100849.22;3579960;40;20048;-63
2022/12/10 11:07:13;;;;;;;54.42;23.02;;;;;;;1.05;80.08;100852.63;3579434;40;20064;-63
2022/12/10 11:09:39;;;;;;;49.80;21.10;;;;;;;1.05;79.64;100848.19;3580122;40;20048;-63
2022/12/10 11:12:27;;;;;;;55.95;21.58;;;;;;;1.08;79.87;100842.81;3578502;40;20068;-63
2022/12/10 11:14:52;;;;;;;55.47;22.50;;;;;;;1.09;79.31;100844.56;3578445;40;20582;-63
2022/12/10 11:17:24;;;;;;;51.22;22.35;;;;;;;1.05;79.28;100832.31;3580244;40;20048;-64
2022/12/10 11:20:16;;;;;;;60.45;23.38;;;;;;;1.04;79.31;100830.53;3578743;40;20153;-64
2022/12/10 11:22:55;;;;;;;61.85;24.13;;;;;;;1.14;79.05;100837.41;3579525;40;20056;-63
2022/12/10 11:25:47;;;;;;;61.55;24.25;;;;;;;1.21;78.89;100838.13;3579318;40;20052;-64
2022/12/10 11:28:44;;;;;;;49.65;21.85;;;;;;;1.10;78.45;100819.81;3577739;40;20090;-64
2022/12/10 11:32:08;;;;;;;49.92;21.45;;;;;;;1.15;79.29;100833.84;3579535;40;20293;-64
2022/12/10 11:34:56;;;;;;;53.20;22.90;;;;;;;1.15;79.14;100832.97;3578790;40;20064;-64
2022/12/10 11:38:15;;;;;;;52.38;22.58;;;;;;;1.21;79.34;100839.91;3572621;40;20379;-64
2022/12/10 11:40:58;;;;;;;56.50;22.05;;;;;;;1.19;79.59;100837.28;3578516;40;20052;-63